Terminal Aerodrome Forecast
Issued by NWS

Home | Current Version | Previous Version | Text Only | Print | Product List | Glossary On
Versions: 1 2 3 4 5 6 7 8 9 10 11 12 13 14 15 16 17 18 19
000
FTAK31 PAFA 181740
TAFASC
TAF
PASC 181740Z 1818/1918 26009KT 4SM BR BKN007 OVC010
     FM182100 30007KT P6SM OVC015
     FM190200 04006KT 5SM BR OVC007
     FM191200 05006KT 1SM BR OVC003=

USA.gov is the U.S. government's official web portal to all federal, state and local government web resources and services.